sensor_id;sensor_type;location;lat;lon;timestamp;pressure;altitude;pressure_sealevel;temperature;humidity
9189;BME280;34313;50.780;6.084;2023-06-14T00:00:32;99262.69;;;17.18;53.47
9189;BME280;34313;50.780;6.084;2023-06-14T00:02:59;99275.63;;;17.13;53.69
9189;BME280;34313;50.780;6.084;2023-06-14T00:05:24;99266.88;;;17.01;53.87
9189;BME280;34313;50.780;6.084;2023-06-14T00:07:50;99261.44;;;17.03;54.03
9189;BME280;34313;50.780;6.084;2023-06-14T00:10:18;99267.53;;;16.93;54.20
9189;BME280;34313;50.780;6.084;2023-06-14T00:12:44;99266.00;;;16.91;54.46
9189;BME280;34313;50.780;6.084;2023-06-14T00:15:09;99269.19;;;16.85;54.61
9189;BME280;34313;50.780;6.084;2023-06-14T00:17:35;99274.66;;;16.83;54.87
9189;BME280;34313;50.780;6.084;2023-06-14T00:20:03;99278.06;;;16.85;54.94
9189;BME280;34313;50.780;6.084;2023-06-14T00:22:30;99262.13;;;16.74;55.34
9189;BME280;34313;50.780;6.084;2023-06-14T00:24:56;99273.06;;;16.71;55.82
9189;BME280;34313;50.780;6.084;2023-06-14T00:27:22;99271.63;;;16.57;56.31
9189;BME280;34313;50.780;6.084;2023-06-14T00:29:47;99274.13;;;16.58;56.97
9189;BME280;34313;50.780;6.084;2023-06-14T00:32:12;99275.09;;;16.57;56.94
9189;BME280;34313;50.780;6.084;2023-06-14T00:34:38;99272.84;;;16.53;57.02
9189;BME280;34313;50.780;6.084;2023-06-14T00:37:03;99267.06;;;16.48;57.05
9189;BME280;34313;50.780;6.084;2023-06-14T00:39:28;99268.06;;;16.47;57.27
9189;BME280;34313;50.780;6.084;2023-06-14T00:41:54;99272.50;;;16.46;57.31
9189;BME280;34313;50.780;6.084;2023-06-14T00:44:19;99269.03;;;16.45;57.26
9189;BME280;34313;50.780;6.084;2023-06-14T00:46:45;99273.78;;;16.42;57.35
9189;BME280;34313;50.780;6.084;2023-06-14T00:49:12;99280.34;;;16.38;57.87
9189;BME280;34313;50.780;6.084;2023-06-14T00:51:37;99280.97;;;16.30;57.67
9189;BME280;34313;50.780;6.084;2023-06-14T00:54:03;99277.88;;;16.25;58.29
9189;BME280;34313;50.780;6.084;2023-06-14T00:56:28;99286.25;;;16.20;59.47
9189;BME280;34313;50.780;6.084;2023-06-14T00:58:55;99272.84;;;16.22;59.67
9189;BME280;34313;50.780;6.084;2023-06-14T01:01:21;99283.84;;;16.17;60.09
9189;BME280;34313;50.780;6.084;2023-06-14T01:03:46;99270.22;;;16.11;59.69
9189;BME280;34313;50.780;6.084;2023-06-14T01:09:01;99286.31;;;16.09;60.14
9189;BME280;34313;50.780;6.084;2023-06-14T01:11:32;99279.00;;;16.01;60.48
9189;BME280;34313;50.780;6.084;2023-06-14T01:14:03;99281.06;;;15.98;60.57
9189;BME280;34313;50.780;6.084;2023-06-14T01:16:29;99275.88;;;15.96;61.21
9189;BME280;34313;50.780;6.084;2023-06-14T01:18:56;99278.06;;;15.91;61.36
9189;BME280;34313;50.780;6.084;2023-06-14T01:21:24;99279.13;;;16.00;62.92
9189;BME280;34313;50.780;6.084;2023-06-14T01:23:50;99281.13;;;16.07;63.30
9189;BME280;34313;50.780;6.084;2023-06-14T01:26:19;99273.34;;;15.95;62.94
9189;BME280;34313;50.780;6.084;2023-06-14T01:28:45;99274.50;;;16.02;62.71
9189;BME280;34313;50.780;6.084;2023-06-14T01:31:16;99274.63;;;16.00;62.48
9189;BME280;34313;50.780;6.084;2023-06-14T01:33:42;99267.41;;;16.02;62.05
9189;BME280;34313;50.780;6.084;2023-06-14T01:36:09;99272.56;;;16.04;62.23
9189;BME280;34313;50.780;6.084;2023-06-14T01:38:36;99278.41;;;15.98;62.61
9189;BME280;34313;50.780;6.084;2023-06-14T01:41:03;99279.38;;;15.97;62.87
9189;BME280;34313;50.780;6.084;2023-06-14T01:43:30;99276.13;;;15.93;62.92
9189;BME280;34313;50.780;6.084;2023-06-14T01:45:57;99269.53;;;15.87;62.73
9189;BME280;34313;50.780;6.084;2023-06-14T01:48:23;99276.25;;;15.92;62.73
9189;BME280;34313;50.780;6.084;2023-06-14T01:50:49;99273.88;;;15.88;62.78
9189;BME280;34313;50.780;6.084;2023-06-14T01:53:15;99271.94;;;15.91;62.84
9189;BME280;34313;50.780;6.084;2023-06-14T01:55:41;99264.34;;;15.86;63.16
9189;BME280;34313;50.780;6.084;2023-06-14T01:58:08;99274.13;;;15.85;62.95
9189;BME280;34313;50.780;6.084;2023-06-14T02:00:34;99277.44;;;15.78;63.27
9189;BME280;34313;50.780;6.084;2023-06-14T02:02:59;99275.38;;;15.81;62.58
9189;BME280;34313;50.780;6.084;2023-06-14T02:05:25;99286.59;;;15.74;63.13
9189;BME280;34313;50.780;6.084;2023-06-14T02:07:51;99280.34;;;15.63;63.13
9189;BME280;34313;50.780;6.084;2023-06-14T02:10:17;99278.59;;;15.53;63.60
9189;BME280;34313;50.780;6.084;2023-06-14T02:12:43;99273.56;;;15.38;64.55
9189;BME280;34313;50.780;6.084;2023-06-14T02:15:08;99282.16;;;15.30;65.47
9189;BME280;34313;50.780;6.084;2023-06-14T02:17:35;99281.34;;;15.19;66.31
9189;BME280;34313;50.780;6.084;2023-06-14T02:20:00;99286.38;;;15.33;66.53
9189;BME280;34313;50.780;6.084;2023-06-14T02:22:28;99280.34;;;15.20;67.26
9189;BME280;34313;50.780;6.084;2023-06-14T02:24:53;99279.78;;;15.16;66.98
9189;BME280;34313;50.780;6.084;2023-06-14T02:27:18;99292.69;;;15.21;66.86
9189;BME280;34313;50.780;6.084;2023-06-14T02:29:44;99283.53;;;15.02;67.67
9189;BME280;34313;50.780;6.084;2023-06-14T02:32:09;99294.63;;;15.07;67.34
9189;BME280;34313;50.780;6.084;2023-06-14T02:34:35;99298.25;;;15.06;66.67
9189;BME280;34313;50.780;6.084;2023-06-14T02:37:01;99290.81;;;14.89;67.09
9189;BME280;34313;50.780;6.084;2023-06-14T02:39:28;99294.91;;;14.82;67.56
9189;BME280;34313;50.780;6.084;2023-06-14T02:41:54;99296.84;;;14.80;67.43
9189;BME280;34313;50.780;6.084;2023-06-14T02:44:19;99294.44;;;14.77;67.74
9189;BME280;34313;50.780;6.084;2023-06-14T02:46:45;99300.56;;;14.77;68.23
9189;BME280;34313;50.780;6.084;2023-06-14T02:49:11;99301.41;;;14.78;68.16
9189;BME280;34313;50.780;6.084;2023-06-14T02:51:36;99301.69;;;14.74;68.14
9189;BME280;34313;50.780;6.084;2023-06-14T02:54:01;99294.19;;;14.68;68.29
9189;BME280;34313;50.780;6.084;2023-06-14T02:56:26;99301.06;;;14.71;68.53
9189;BME280;34313;50.780;6.084;2023-06-14T02:58:53;99305.41;;;14.72;68.36
9189;BME280;34313;50.780;6.084;2023-06-14T03:01:18;99299.38;;;14.70;68.11
9189;BME280;34313;50.780;6.084;2023-06-14T03:03:45;99305.28;;;14.73;67.99
9189;BME280;34313;50.780;6.084;2023-06-14T03:06:11;99303.47;;;14.74;67.66
9189;BME280;34313;50.780;6.084;2023-06-14T03:08:38;99311.91;;;14.79;67.76
9189;BME280;34313;50.780;6.084;2023-06-14T03:11:04;99310.84;;;14.82;67.65
9189;BME280;34313;50.780;6.084;2023-06-14T03:13:33;99313.50;;;14.82;67.38
9189;BME280;34313;50.780;6.084;2023-06-14T03:15:59;99311.56;;;14.84;67.24
9189;BME280;34313;50.780;6.084;2023-06-14T03:18:28;99312.50;;;14.83;67.39
9189;BME280;34313;50.780;6.084;2023-06-14T03:20:54;99322.03;;;14.85;67.38
9189;BME280;34313;50.780;6.084;2023-06-14T03:23:22;99318.19;;;14.89;66.92
9189;BME280;34313;50.780;6.084;2023-06-14T03:25:47;99311.44;;;14.85;66.66
9189;BME280;34313;50.780;6.084;2023-06-14T03:28:13;99320.59;;;14.92;66.68
9189;BME280;34313;50.780;6.084;2023-06-14T03:30:38;99319.25;;;14.98;66.21
9189;BME280;34313;50.780;6.084;2023-06-14T03:33:03;99305.38;;;14.94;65.96
9189;BME280;34313;50.780;6.084;2023-06-14T03:35:29;99323.63;;;14.99;65.75
9189;BME280;34313;50.780;6.084;2023-06-14T03:37:55;99329.03;;;14.98;65.40
9189;BME280;34313;50.780;6.084;2023-06-14T03:40:21;99321.19;;;14.96;65.07
9189;BME280;34313;50.780;6.084;2023-06-14T03:42:46;99324.31;;;15.01;64.96
9189;BME280;34313;50.780;6.084;2023-06-14T03:45:12;99323.22;;;15.04;64.90
9189;BME280;34313;50.780;6.084;2023-06-14T03:47:37;99328.91;;;15.10;64.45
9189;BME280;34313;50.780;6.084;2023-06-14T03:50:03;99325.50;;;15.20;64.42
9189;BME280;34313;50.780;6.084;2023-06-14T03:52:29;99325.97;;;15.25;64.24
9189;BME280;34313;50.780;6.084;2023-06-14T03:54:54;99330.56;;;15.34;64.12
9189;BME280;34313;50.780;6.084;2023-06-14T03:57:20;99327.91;;;15.34;64.04
9189;BME280;34313;50.780;6.084;2023-06-14T03:59:47;99326.69;;;15.38;63.83
9189;BME280;34313;50.780;6.084;2023-06-14T04:02:12;99333.41;;;15.54;63.97
9189;BME280;34313;50.780;6.084;2023-06-14T04:04:40;99335.19;;;15.53;64.10
9189;BME280;34313;50.780;6.084;2023-06-14T04:07:10;99335.78;;;15.57;64.42
9189;BME280;34313;50.780;6.084;2023-06-14T04:09:37;99326.09;;;15.67;64.19
9189;BME280;34313;50.780;6.084;2023-06-14T04:12:02;99333.44;;;15.86;63.40
9189;BME280;34313;50.780;6.084;2023-06-14T04:14:27;99346.72;;;15.86;63.59
9189;BME280;34313;50.780;6.084;2023-06-14T04:16:53;99341.25;;;15.99;63.45
9189;BME280;34313;50.780;6.084;2023-06-14T04:19:18;99336.19;;;15.96;62.89
9189;BME280;34313;50.780;6.084;2023-06-14T04:21:43;99340.22;;;16.11;62.18
9189;BME280;34313;50.780;6.084;2023-06-14T04:24:09;99342.34;;;16.17;62.07
9189;BME280;34313;50.780;6.084;2023-06-14T04:26:42;99339.19;;;16.23;61.66
9189;BME280;34313;50.780;6.084;2023-06-14T04:29:10;99346.25;;;16.34;61.56
9189;BME280;34313;50.780;6.084;2023-06-14T04:31:39;99346.69;;;16.39;61.73
9189;BME280;34313;50.780;6.084;2023-06-14T04:34:04;99354.97;;;16.46;61.00
9189;BME280;34313;50.780;6.084;2023-06-14T04:36:32;99350.69;;;16.55;60.91
9189;BME280;34313;50.780;6.084;2023-06-14T04:39:03;99345.94;;;16.58;60.89
9189;BME280;34313;50.780;6.084;2023-06-14T04:41:29;99342.69;;;16.76;60.66
9189;BME280;34313;50.780;6.084;2023-06-14T04:44:00;99345.56;;;16.84;60.03
9189;BME280;34313;50.780;6.084;2023-06-14T04:46:27;99356.41;;;17.02;59.40
9189;BME280;34313;50.780;6.084;2023-06-14T04:48:54;99359.00;;;17.13;58.90
9189;BME280;34313;50.780;6.084;2023-06-14T04:51:19;99348.66;;;17.30;57.86
9189;BME280;34313;50.780;6.084;2023-06-14T04:53:47;99349.56;;;17.60;56.69
9189;BME280;34313;50.780;6.084;2023-06-14T04:56:14;99356.91;;;18.36;54.82
9189;BME280;34313;50.780;6.084;2023-06-14T04:58:40;99356.69;;;20.75;48.13
9189;BME280;34313;50.780;6.084;2023-06-14T05:01:05;99347.72;;;24.10;39.65
9189;BME280;34313;50.780;6.084;2023-06-14T05:03:30;99350.50;;;27.37;34.25
9189;BME280;34313;50.780;6.084;2023-06-14T05:05:56;99358.84;;;29.88;29.18
9189;BME280;34313;50.780;6.084;2023-06-14T05:08:22;99359.22;;;31.47;26.35
9189;BME280;34313;50.780;6.084;2023-06-14T05:10:51;99362.31;;;33.42;23.58
9189;BME280;34313;50.780;6.084;2023-06-14T05:13:16;99356.25;;;34.26;22.30
9189;BME280;34313;50.780;6.084;2023-06-14T05:15:42;99361.09;;;35.14;21.07
9189;BME280;34313;50.780;6.084;2023-06-14T05:18:07;99362.50;;;36.47;20.17
9189;BME280;34313;50.780;6.084;2023-06-14T05:20:34;99353.91;;;36.76;19.67
9189;BME280;34313;50.780;6.084;2023-06-14T05:23:02;99358.19;;;37.83;18.47
9189;BME280;34313;50.780;6.084;2023-06-14T05:25:28;99345.84;;;38.16;17.97
9189;BME280;34313;50.780;6.084;2023-06-14T05:27:53;99345.81;;;37.75;18.19
9189;BME280;34313;50.780;6.084;2023-06-14T05:30:18;99349.41;;;38.43;17.40
9189;BME280;34313;50.780;6.084;2023-06-14T05:32:44;99352.44;;;38.46;17.38
9189;BME280;34313;50.780;6.084;2023-06-14T05:35:10;99351.03;;;37.92;17.60
9189;BME280;34313;50.780;6.084;2023-06-14T05:37:35;99345.50;;;38.85;16.79
9189;BME280;34313;50.780;6.084;2023-06-14T05:40:01;99350.22;;;38.53;16.88
9189;BME280;34313;50.780;6.084;2023-06-14T05:42:29;99354.41;;;39.42;16.35
9189;BME280;34313;50.780;6.084;2023-06-14T05:44:54;99353.06;;;40.82;15.87
9189;BME280;34313;50.780;6.084;2023-06-14T05:47:20;99350.06;;;41.22;14.88
9189;BME280;34313;50.780;6.084;2023-06-14T05:49:46;99356.97;;;41.48;14.33
9189;BME280;34313;50.780;6.084;2023-06-14T05:52:11;99363.16;;;41.40;14.42
9189;BME280;34313;50.780;6.084;2023-06-14T05:54:38;99362.69;;;39.37;15.93
9189;BME280;34313;50.780;6.084;2023-06-14T05:57:03;99362.91;;;38.75;16.42
9189;BME280;34313;50.780;6.084;2023-06-14T05:59:30;99361.78;;;37.83;16.81
9189;BME280;34313;50.780;6.084;2023-06-14T06:01:55;99361.81;;;38.45;16.53
9189;BME280;34313;50.780;6.084;2023-06-14T06:04:21;99365.97;;;39.44;16.07
9189;BME280;34313;50.780;6.084;2023-06-14T06:06:46;99370.34;;;38.44;16.43
9189;BME280;34313;50.780;6.084;2023-06-14T06:09:12;99376.53;;;37.57;17.22
9189;BME280;34313;50.780;6.084;2023-06-14T06:11:39;99374.53;;;37.26;17.66
9189;BME280;34313;50.780;6.084;2023-06-14T06:14:05;99377.19;;;37.90;17.03
9189;BME280;34313;50.780;6.084;2023-06-14T06:16:30;99383.50;;;39.03;16.56
9189;BME280;34313;50.780;6.084;2023-06-14T06:18:56;99378.06;;;38.11;16.86
9189;BME280;34313;50.780;6.084;2023-06-14T06:21:22;99391.81;;;36.42;17.98
9189;BME280;34313;50.780;6.084;2023-06-14T06:23:47;99387.72;;;34.62;19.88
9189;BME280;34313;50.780;6.084;2023-06-14T06:26:13;99387.41;;;33.15;21.21
9189;BME280;34313;50.780;6.084;2023-06-14T06:28:39;99405.06;;;31.69;22.72
9189;BME280;34313;50.780;6.084;2023-06-14T06:31:05;99385.84;;;29.24;25.73
9189;BME280;34313;50.780;6.084;2023-06-14T06:33:30;99390.66;;;27.95;27.40
9189;BME280;34313;50.780;6.084;2023-06-14T06:35:55;99400.34;;;27.69;28.23
9189;BME280;34313;50.780;6.084;2023-06-14T06:38:21;99393.03;;;29.50;26.05
9189;BME280;34313;50.780;6.084;2023-06-14T06:40:46;99399.53;;;31.76;23.27
9189;BME280;34313;50.780;6.084;2023-06-14T06:43:12;99394.91;;;33.20;21.31
9189;BME280;34313;50.780;6.084;2023-06-14T06:45:39;99407.59;;;35.31;19.82
9189;BME280;34313;50.780;6.084;2023-06-14T06:48:05;99406.56;;;35.15;19.74
9189;BME280;34313;50.780;6.084;2023-06-14T06:50:30;99403.69;;;35.93;18.55
9189;BME280;34313;50.780;6.084;2023-06-14T06:52:56;99408.69;;;36.61;18.63
9189;BME280;34313;50.780;6.084;2023-06-14T06:55:21;99409.38;;;34.47;19.42
9189;BME280;34313;50.780;6.084;2023-06-14T06:57:47;99415.63;;;33.85;20.31
9189;BME280;34313;50.780;6.084;2023-06-14T07:00:12;99416.53;;;35.04;19.41
9189;BME280;34313;50.780;6.084;2023-06-14T07:02:38;99412.91;;;33.85;20.17
9189;BME280;34313;50.780;6.084;2023-06-14T07:05:03;99409.31;;;35.59;18.73
9189;BME280;34313;50.780;6.084;2023-06-14T07:07:29;99423.97;;;38.00;16.80
9189;BME280;34313;50.780;6.084;2023-06-14T07:09:54;99425.91;;;39.07;15.77
9189;BME280;34313;50.780;6.084;2023-06-14T07:12:22;99430.63;;;38.81;15.62
9189;BME280;34313;50.780;6.084;2023-06-14T07:14:48;99429.56;;;37.42;16.88
9189;BME280;34313;50.780;6.084;2023-06-14T07:17:13;99435.56;;;39.15;15.51
9189;BME280;34313;50.780;6.084;2023-06-14T07:19:38;99438.84;;;39.87;14.79
9189;BME280;34313;50.780;6.084;2023-06-14T07:22:03;99446.69;;;40.15;14.38
9189;BME280;34313;50.780;6.084;2023-06-14T07:24:29;99431.91;;;39.35;15.08
9189;BME280;34313;50.780;6.084;2023-06-14T07:26:54;99434.91;;;39.49;15.03
9189;BME280;34313;50.780;6.084;2023-06-14T07:29:21;99433.84;;;39.95;14.48
9189;BME280;34313;50.780;6.084;2023-06-14T07:31:47;99435.16;;;39.42;14.57
9189;BME280;34313;50.780;6.084;2023-06-14T07:34:15;99438.09;;;38.34;15.53
9189;BME280;34313;50.780;6.084;2023-06-14T07:36:40;99432.44;;;39.47;14.74
9189;BME280;34313;50.780;6.084;2023-06-14T07:39:06;99435.75;;;37.80;16.19
9189;BME280;34313;50.780;6.084;2023-06-14T07:41:32;99442.47;;;38.82;15.38
9189;BME280;34313;50.780;6.084;2023-06-14T07:43:57;99437.78;;;38.51;15.64
9189;BME280;34313;50.780;6.084;2023-06-14T07:46:23;99440.81;;;38.86;15.32
9189;BME280;34313;50.780;6.084;2023-06-14T07:48:49;99441.00;;;39.30;15.16
9189;BME280;34313;50.780;6.084;2023-06-14T07:51:14;99426.97;;;37.93;16.21
9189;BME280;34313;50.780;6.084;2023-06-14T07:53:39;99429.31;;;37.01;16.98
9189;BME280;34313;50.780;6.084;2023-06-14T07:56:06;99447.28;;;36.76;17.34
9189;BME280;34313;50.780;6.084;2023-06-14T07:58:32;99449.00;;;38.03;16.15
9189;BME280;34313;50.780;6.084;2023-06-14T08:00:57;99445.25;;;38.56;15.63
9189;BME280;34313;50.780;6.084;2023-06-14T08:03:23;99437.25;;;36.97;17.01
9189;BME280;34313;50.780;6.084;2023-06-14T08:05:49;99438.22;;;36.48;17.28
9189;BME280;34313;50.780;6.084;2023-06-14T08:08:17;99437.94;;;37.78;16.62
9189;BME280;34313;50.780;6.084;2023-06-14T08:10:45;99443.63;;;37.03;16.14
9189;BME280;34313;50.780;6.084;2023-06-14T08:13:11;99461.63;;;36.24;16.48
9189;BME280;34313;50.780;6.084;2023-06-14T08:15:36;99442.97;;;36.85;16.08
9189;BME280;34313;50.780;6.084;2023-06-14T08:18:01;99449.63;;;38.16;15.37
9189;BME280;34313;50.780;6.084;2023-06-14T08:20:30;99452.94;;;38.49;15.15
9189;BME280;34313;50.780;6.084;2023-06-14T08:22:56;99449.34;;;38.48;14.98
9189;BME280;34313;50.780;6.084;2023-06-14T08:25:22;99453.50;;;37.57;16.00
9189;BME280;34313;50.780;6.084;2023-06-14T08:27:48;99458.56;;;35.49;17.19
9189;BME280;34313;50.780;6.084;2023-06-14T08:30:14;99459.34;;;36.15;16.39
9189;BME280;34313;50.780;6.084;2023-06-14T08:32:46;99446.28;;;35.34;17.13
9189;BME280;34313;50.780;6.084;2023-06-14T08:35:14;99453.78;;;37.07;15.75
9189;BME280;34313;50.780;6.084;2023-06-14T08:38:04;99461.94;;;34.03;18.20
9189;BME280;34313;50.780;6.084;2023-06-14T08:40:42;99458.41;;;34.82;17.70
9189;BME280;34313;50.780;6.084;2023-06-14T08:43:10;99425.72;;;34.13;18.31
9189;BME280;34313;50.780;6.084;2023-06-14T08:45:39;99429.19;;;34.71;17.69
9189;BME280;34313;50.780;6.084;2023-06-14T08:48:08;99439.53;;;33.02;19.43
9189;BME280;34313;50.780;6.084;2023-06-14T08:50:34;99432.84;;;34.60;18.32
9189;BME280;34313;50.780;6.084;2023-06-14T08:53:02;99439.59;;;36.19;16.89
9189;BME280;34313;50.780;6.084;2023-06-14T08:55:29;99453.34;;;37.79;15.45
9189;BME280;34313;50.780;6.084;2023-06-14T08:57:56;99438.47;;;35.87;16.99
9189;BME280;34313;50.780;6.084;2023-06-14T09:00:26;99461.34;;;35.32;17.01
9189;BME280;34313;50.780;6.084;2023-06-14T09:02:59;99458.94;;;33.76;18.33
9189;BME280;34313;50.780;6.084;2023-06-14T09:05:26;99462.69;;;32.87;18.81
9189;BME280;34313;50.780;6.084;2023-06-14T09:07:52;99454.94;;;32.60;18.79
9189;BME280;34313;50.780;6.084;2023-06-14T09:10:22;99470.00;;;32.02;19.40
9189;BME280;34313;50.780;6.084;2023-06-14T09:12:48;99462.84;;;34.09;18.02
9189;BME280;34313;50.780;6.084;2023-06-14T09:15:13;99470.22;;;34.08;17.90
9189;BME280;34313;50.780;6.084;2023-06-14T09:17:39;99470.84;;;33.46;18.47
9189;BME280;34313;50.780;6.084;2023-06-14T09:20:06;99452.81;;;32.74;19.86
9189;BME280;34313;50.780;6.084;2023-06-14T09:22:33;99459.34;;;34.25;18.19
9189;BME280;34313;50.780;6.084;2023-06-14T09:24:59;99432.72;;;33.92;18.65
9189;BME280;34313;50.780;6.084;2023-06-14T09:27:27;99480.94;;;33.69;18.76
9189;BME280;34313;50.780;6.084;2023-06-14T09:29:53;99443.84;;;30.84;20.86
9189;BME280;34313;50.780;6.084;2023-06-14T09:32:18;99450.59;;;30.24;22.03
9189;BME280;34313;50.780;6.084;2023-06-14T09:34:45;99442.25;;;30.19;21.99
9189;BME280;34313;50.780;6.084;2023-06-14T09:37:11;99468.28;;;30.90;21.63
9189;BME280;34313;50.780;6.084;2023-06-14T09:39:57;99457.19;;;31.91;20.98
9189;BME280;34313;50.780;6.084;2023-06-14T09:42:25;99457.31;;;31.96;20.81
9189;BME280;34313;50.780;6.084;2023-06-14T09:44:56;99441.28;;;32.60;20.09
9189;BME280;34313;50.780;6.084;2023-06-14T09:47:24;99446.41;;;32.27;20.57
9189;BME280;34313;50.780;6.084;2023-06-14T09:49:50;99467.94;;;30.80;21.54
9189;BME280;34313;50.780;6.084;2023-06-14T09:52:20;99452.59;;;30.92;21.49
9189;BME280;34313;50.780;6.084;2023-06-14T09:54:47;99472.28;;;29.92;23.00
9189;BME280;34313;50.780;6.084;2023-06-14T09:57:15;99473.34;;;28.93;23.59
9189;BME280;34313;50.780;6.084;2023-06-14T09:59:45;99459.75;;;28.59;23.66
9189;BME280;34313;50.780;6.084;2023-06-14T10:04:46;99457.75;;;27.51;25.41
9189;BME280;34313;50.780;6.084;2023-06-14T10:07:19;99444.88;;;28.02;25.06
9189;BME280;34313;50.780;6.084;2023-06-14T10:09:46;99469.75;;;27.77;24.97
9189;BME280;34313;50.780;6.084;2023-06-14T10:12:16;99462.06;;;27.81;25.32
9189;BME280;34313;50.780;6.084;2023-06-14T10:14:47;99475.03;;;27.50;25.72
9189;BME280;34313;50.780;6.084;2023-06-14T10:17:22;99452.59;;;26.65;26.33
9189;BME280;34313;50.780;6.084;2023-06-14T10:20:10;99486.50;;;26.10;26.95
9189;BME280;34313;50.780;6.084;2023-06-14T10:22:47;99472.84;;;25.96;26.38
9189;BME280;34313;50.780;6.084;2023-06-14T10:25:29;99460.13;;;26.12;26.20
9189;BME280;34313;50.780;6.084;2023-06-14T10:31:02;99468.94;;;27.13;25.13
9189;BME280;34313;50.780;6.084;2023-06-14T10:39:00;99452.47;;;25.79;26.33
9189;BME280;34313;50.780;6.084;2023-06-14T10:41:28;99442.84;;;25.40;26.82
9189;BME280;34313;50.780;6.084;2023-06-14T10:46:38;99467.22;;;26.34;26.16
9189;BME280;34313;50.780;6.084;2023-06-14T10:49:04;99443.56;;;26.36;26.15
9189;BME280;34313;50.780;6.084;2023-06-14T10:51:46;99439.13;;;26.29;25.90
9189;BME280;34313;50.780;6.084;2023-06-14T10:54:21;99479.13;;;25.52;26.18
9189;BME280;34313;50.780;6.084;2023-06-14T10:56:50;99466.28;;;24.71;26.51
9189;BME280;34313;50.780;6.084;2023-06-14T10:59:17;99460.59;;;24.66;26.62
9189;BME280;34313;50.780;6.084;2023-06-14T11:04:17;99428.81;;;24.62;26.48
9189;BME280;34313;50.780;6.084;2023-06-14T11:06:50;99437.72;;;24.62;26.13
9189;BME280;34313;50.780;6.084;2023-06-14T11:11:45;99456.66;;;25.07;26.31
9189;BME280;34313;50.780;6.084;2023-06-14T11:14:11;99442.25;;;24.85;26.53
9189;BME280;34313;50.780;6.084;2023-06-14T11:16:37;99458.34;;;24.55;25.69
9189;BME280;34313;50.780;6.084;2023-06-14T11:19:02;99454.06;;;24.14;26.05
9189;BME280;34313;50.780;6.084;2023-06-14T11:21:32;99463.22;;;24.28;26.23
9189;BME280;34313;50.780;6.084;2023-06-14T11:23:58;99442.47;;;23.83;26.80
9189;BME280;34313;50.780;6.084;2023-06-14T11:26:28;99462.53;;;24.03;26.83
9189;BME280;34313;50.780;6.084;2023-06-14T11:28:58;99464.97;;;23.90;26.91
9189;BME280;34313;50.780;6.084;2023-06-14T11:31:25;99440.44;;;23.76;27.34
9189;BME280;34313;50.780;6.084;2023-06-14T11:33:53;99451.03;;;23.86;27.69
9189;BME280;34313;50.780;6.084;2023-06-14T11:36:19;99453.81;;;23.62;27.47
9189;BME280;34313;50.780;6.084;2023-06-14T11:38:44;99439.59;;;23.45;27.84
9189;BME280;34313;50.780;6.084;2023-06-14T11:41:10;99460.78;;;23.87;27.96
9189;BME280;34313;50.780;6.084;2023-06-14T11:43:35;99451.72;;;23.72;28.09
9189;BME280;34313;50.780;6.084;2023-06-14T11:46:01;99450.22;;;24.09;28.05
9189;BME280;34313;50.780;6.084;2023-06-14T11:48:41;99456.97;;;24.28;27.97
9189;BME280;34313;50.780;6.084;2023-06-14T11:51:06;99460.69;;;24.04;28.36
9189;BME280;34313;50.780;6.084;2023-06-14T11:53:32;99453.75;;;24.09;28.54
9189;BME280;34313;50.780;6.084;2023-06-14T11:55:58;99447.59;;;24.01;28.03
9189;BME280;34313;50.780;6.084;2023-06-14T11:58:25;99452.31;;;23.99;28.74
9189;BME280;34313;50.780;6.084;2023-06-14T12:00:51;99456.59;;;23.76;29.08
9189;BME280;34313;50.780;6.084;2023-06-14T12:03:16;99443.44;;;23.90;28.63
9189;BME280;34313;50.780;6.084;2023-06-14T12:05:42;99455.84;;;23.99;28.40
9189;BME280;34313;50.780;6.084;2023-06-14T12:08:08;99448.03;;;24.12;28.50
9189;BME280;34313;50.780;6.084;2023-06-14T12:10:41;99458.09;;;24.10;28.32
9189;BME280;34313;50.780;6.084;2023-06-14T12:13:08;99444.94;;;24.15;29.59
9189;BME280;34313;50.780;6.084;2023-06-14T12:15:34;99450.72;;;24.12;30.49
9189;BME280;34313;50.780;6.084;2023-06-14T12:17:59;99448.19;;;24.11;30.32
9189;BME280;34313;50.780;6.084;2023-06-14T12:20:29;99460.75;;;24.19;30.39
9189;BME280;34313;50.780;6.084;2023-06-14T12:22:58;99447.59;;;24.24;30.33
9189;BME280;34313;50.780;6.084;2023-06-14T12:25:34;99456.22;;;24.42;29.81
9189;BME280;34313;50.780;6.084;2023-06-14T12:28:05;99443.34;;;24.29;30.87
9189;BME280;34313;50.780;6.084;2023-06-14T12:30:33;99450.78;;;23.96;30.33
9189;BME280;34313;50.780;6.084;2023-06-14T12:32:58;99448.13;;;24.19;31.08
9189;BME280;34313;50.780;6.084;2023-06-14T12:35:23;99454.53;;;24.18;30.58
9189;BME280;34313;50.780;6.084;2023-06-14T12:37:49;99455.34;;;23.95;30.89
9189;BME280;34313;50.780;6.084;2023-06-14T12:40:14;99457.16;;;24.03;30.57
9189;BME280;34313;50.780;6.084;2023-06-14T12:42:40;99463.00;;;24.07;31.11
9189;BME280;34313;50.780;6.084;2023-06-14T12:45:06;99455.88;;;24.14;30.83
9189;BME280;34313;50.780;6.084;2023-06-14T12:47:31;99456.63;;;24.31;30.71
9189;BME280;34313;50.780;6.084;2023-06-14T12:49:57;99449.03;;;24.34;30.69
9189;BME280;34313;50.780;6.084;2023-06-14T12:52:22;99449.63;;;24.45;31.02
9189;BME280;34313;50.780;6.084;2023-06-14T12:54:47;99445.25;;;24.44;30.98
9189;BME280;34313;50.780;6.084;2023-06-14T12:57:13;99450.44;;;24.53;30.43
9189;BME280;34313;50.780;6.084;2023-06-14T12:59:38;99474.31;;;24.33;30.35
9189;BME280;34313;50.780;6.084;2023-06-14T13:02:13;99466.44;;;24.01;30.52
9189;BME280;34313;50.780;6.084;2023-06-14T13:04:39;99458.19;;;24.02;30.69
9189;BME280;34313;50.780;6.084;2023-06-14T13:07:05;99458.53;;;23.99;30.94
9189;BME280;34313;50.780;6.084;2023-06-14T13:09:30;99453.59;;;24.11;30.95
9189;BME280;34313;50.780;6.084;2023-06-14T13:11:56;99454.63;;;24.02;31.08
9189;BME280;34313;50.780;6.084;2023-06-14T13:14:21;99454.84;;;24.00;31.13
9189;BME280;34313;50.780;6.084;2023-06-14T13:16:47;99458.88;;;23.96;30.99
9189;BME280;34313;50.780;6.084;2023-06-14T13:19:12;99459.56;;;24.21;30.68
9189;BME280;34313;50.780;6.084;2023-06-14T13:21:37;99460.22;;;24.46;30.62
9189;BME280;34313;50.780;6.084;2023-06-14T13:24:03;99448.84;;;24.59;30.52
9189;BME280;34313;50.780;6.084;2023-06-14T13:26:28;99462.13;;;24.84;29.88
9189;BME280;34313;50.780;6.084;2023-06-14T13:28:53;99456.00;;;24.90;30.09